createdAt,value
2018-06-12T00:01:23.544Z,100681.00
2018-06-12T00:04:34.464Z,100676.00
2018-06-12T00:07:45.298Z,100676.00
2018-06-12T00:10:55.823Z,100674.00
2018-06-12T00:14:06.299Z,100667.00
2018-06-12T00:17:18.088Z,100673.00
2018-06-12T00:20:28.524Z,100670.00
2018-06-12T00:23:39.468Z,100667.00
2018-06-12T00:26:50.059Z,100670.00
2018-06-12T00:30:00.580Z,100665.00
2018-06-12T00:33:11.133Z,100663.00
2018-06-12T00:36:22.013Z,100658.00
2018-06-12T00:39:32.707Z,100658.00
2018-06-12T00:42:43.784Z,100654.00
2018-06-12T00:45:54.452Z,100651.00
2018-06-12T00:49:05.276Z,100657.00
2018-06-12T00:52:15.903Z,100663.00
2018-06-12T00:55:26.603Z,100668.00
2018-06-12T00:58:37.071Z,100673.00
2018-06-12T01:01:47.932Z,100679.00
2018-06-12T01:04:58.899Z,100681.00
2018-06-12T01:08:10.017Z,100680.00
2018-06-12T01:11:20.820Z,100683.00
2018-06-12T01:14:32.900Z,100682.00
2018-06-12T01:17:44.647Z,100685.00
2018-06-12T01:20:55.432Z,100686.00
2018-06-12T01:24:06.152Z,100693.00
2018-06-12T01:27:16.968Z,100696.00
2018-06-12T01:30:27.273Z,100696.00
2018-06-12T01:33:38.089Z,100700.00
2018-06-12T01:36:49.426Z,100702.00
2018-06-12T01:40:00.264Z,100702.00
2018-06-12T01:43:10.759Z,100707.00
2018-06-12T01:46:21.985Z,100705.00
2018-06-12T01:49:32.550Z,100705.00
2018-06-12T01:52:43.374Z,100698.00
2018-06-12T01:55:54.017Z,100698.00
2018-06-12T01:59:04.611Z,100702.00
2018-06-12T02:02:15.207Z,100702.00
2018-06-12T02:05:25.636Z,100700.00
2018-06-12T02:08:36.467Z,100698.00
2018-06-12T02:11:47.047Z,100700.00
2018-06-12T02:14:57.808Z,100699.00
2018-06-12T02:18:08.860Z,100706.00
2018-06-12T02:21:19.591Z,100703.00
2018-06-12T02:24:30.444Z,100704.00
2018-06-12T02:27:41.216Z,100710.00
2018-06-12T02:30:51.914Z,100718.00
2018-06-12T02:34:02.864Z,100712.00
2018-06-12T02:37:13.474Z,100708.00
2018-06-12T02:40:25.502Z,100706.00
2018-06-12T02:43:37.244Z,100710.00
2018-06-12T02:46:48.223Z,100708.00
2018-06-12T02:49:58.639Z,100708.00
2018-06-12T02:53:09.146Z,100706.00
2018-06-12T02:56:19.475Z,100714.00
2018-06-12T02:59:30.252Z,100711.00
2018-06-12T03:02:41.332Z,100718.00
2018-06-12T03:05:52.161Z,100719.00
2018-06-12T03:09:02.766Z,100715.00
2018-06-12T03:12:15.912Z,100714.00
2018-06-12T03:15:32.544Z,100710.00
2018-06-12T03:18:44.789Z,100711.00
2018-06-12T03:21:55.530Z,100705.00
2018-06-12T03:25:08.936Z,100712.00
2018-06-12T03:28:21.168Z,100714.00
2018-06-12T03:31:33.452Z,100723.00
2018-06-12T03:34:51.430Z,100723.00
2018-06-12T03:38:05.828Z,100725.00
2018-06-12T03:45:09.089Z,100727.00
2018-06-12T03:48:27.832Z,100728.00
2018-06-12T03:55:03.855Z,100733.00
2018-06-12T03:58:19.531Z,100733.00
2018-06-12T04:01:52.320Z,100724.00
2018-06-12T04:05:07.725Z,100717.00
2018-06-12T04:08:22.279Z,100727.00
2018-06-12T04:11:41.789Z,100726.00
2018-06-12T04:14:52.478Z,100728.00
2018-06-12T04:18:03.032Z,100727.00
2018-06-12T04:21:14.332Z,100725.00
2018-06-12T04:24:24.755Z,100731.00
2018-06-12T04:27:35.795Z,100727.00
2018-06-12T04:30:46.700Z,100732.00
2018-06-12T04:33:57.091Z,100731.00
2018-06-12T04:37:08.033Z,100724.00
2018-06-12T04:40:18.733Z,100720.00
2018-06-12T04:43:29.578Z,100715.00
2018-06-12T04:46:40.470Z,100720.00
2018-06-12T04:49:51.732Z,100726.00
2018-06-12T04:53:02.629Z,100735.00
2018-06-12T04:56:13.391Z,100739.00
2018-06-12T04:59:24.252Z,100737.00
2018-06-12T05:02:35.060Z,100730.00
2018-06-12T05:05:45.779Z,100733.00
2018-06-12T05:08:56.287Z,100733.00
2018-06-12T05:12:07.199Z,100733.00
2018-06-12T05:15:19.178Z,100735.00
2018-06-12T05:18:34.126Z,100739.00
2018-06-12T05:21:45.067Z,100749.00
2018-06-12T05:24:55.583Z,100744.00
2018-06-12T05:28:06.345Z,100736.00
2018-06-12T05:31:16.913Z,100743.00
2018-06-12T05:34:27.678Z,100741.00
2018-06-12T05:37:38.138Z,100747.00
2018-06-12T05:40:48.726Z,100742.00
2018-06-12T05:44:00.365Z,100746.00
2018-06-12T05:47:11.071Z,100754.00
2018-06-12T05:50:21.884Z,100747.00
2018-06-12T05:53:32.448Z,100747.00
2018-06-12T05:56:43.293Z,100744.00
2018-06-12T05:59:54.232Z,100748.00
2018-06-12T06:03:04.964Z,100749.00
2018-06-12T06:06:16.107Z,100751.00
2018-06-12T06:09:27.069Z,100758.00
2018-06-12T06:12:37.620Z,100760.00
2018-06-12T06:15:48.584Z,100768.00
2018-06-12T06:18:59.188Z,100769.00
2018-06-12T06:22:10.463Z,100773.00
2018-06-12T06:25:21.256Z,100767.00
2018-06-12T06:28:31.624Z,100770.00
2018-06-12T06:31:42.145Z,100769.00
2018-06-12T06:34:53.167Z,100769.00
2018-06-12T06:38:04.847Z,100768.00
2018-06-12T06:41:15.324Z,100771.00
2018-06-12T06:44:32.085Z,100769.00
2018-06-12T06:47:42.491Z,100767.00
2018-06-12T06:50:53.695Z,100767.00
2018-06-12T06:54:05.080Z,100761.00
2018-06-12T06:57:15.865Z,100761.00
2018-06-12T07:00:26.208Z,100753.00
2018-06-12T07:03:37.416Z,100753.00
2018-06-12T07:06:48.240Z,100751.00
2018-06-12T07:09:59.101Z,100757.00
2018-06-12T07:13:10.275Z,100750.00
2018-06-12T07:16:21.000Z,100751.00
2018-06-12T07:19:31.562Z,100752.00
2018-06-12T07:22:43.220Z,100753.00
2018-06-12T07:25:55.012Z,100754.00
2018-06-12T07:29:05.760Z,100751.00
2018-06-12T07:32:16.626Z,100759.00
2018-06-12T07:35:28.331Z,100747.00
2018-06-12T07:38:39.124Z,100743.00
2018-06-12T07:41:49.447Z,100742.00
2018-06-12T07:44:59.792Z,100747.00
2018-06-12T07:48:10.186Z,100757.00
2018-06-12T07:51:20.801Z,100755.00
2018-06-12T07:54:31.884Z,100749.00
2018-06-12T07:57:42.632Z,100749.00
2018-06-12T08:00:53.345Z,100751.00
2018-06-12T08:04:04.207Z,100747.00
2018-06-12T08:07:15.029Z,100738.00
2018-06-12T08:10:25.691Z,100747.00
2018-06-12T08:13:36.393Z,100748.00
2018-06-12T08:16:47.049Z,100747.00
2018-06-12T08:19:58.476Z,100753.00
2018-06-12T08:23:09.247Z,100752.00
2018-06-12T08:26:19.695Z,100757.00
2018-06-12T08:29:30.040Z,100758.00
2018-06-12T08:32:42.081Z,100758.00
2018-06-12T08:35:52.735Z,100749.00
2018-06-12T08:39:06.288Z,100740.00
2018-06-12T08:42:16.972Z,100743.00
2018-06-12T08:45:31.971Z,100737.00
2018-06-12T08:48:42.892Z,100737.00
2018-06-12T08:51:54.028Z,100736.00
2018-06-12T08:55:04.776Z,100734.00
2018-06-12T08:58:15.221Z,100742.00
2018-06-12T09:01:26.163Z,100739.00
2018-06-12T09:04:36.780Z,100727.00
2018-06-12T09:07:47.706Z,100731.00
2018-06-12T09:10:58.481Z,100736.00
2018-06-12T09:14:09.047Z,100725.00
2018-06-12T09:17:19.332Z,100729.00
2018-06-12T09:20:30.300Z,100726.00
2018-06-12T09:23:40.592Z,100737.00
2018-06-12T09:26:50.969Z,100745.00
2018-06-12T09:30:01.285Z,100747.00
2018-06-12T09:33:12.348Z,100746.00
2018-06-12T09:36:34.096Z,100747.00
2018-06-12T09:39:44.943Z,100736.00
2018-06-12T09:42:55.690Z,100746.00
2018-06-12T09:46:07.377Z,100741.00
2018-06-12T09:49:17.830Z,100741.00
2018-06-12T09:52:28.562Z,100744.00
2018-06-12T09:55:38.879Z,100744.00
2018-06-12T09:58:49.598Z,100746.00
2018-06-12T10:02:00.043Z,100756.00
2018-06-12T10:05:10.633Z,100750.00
2018-06-12T10:08:21.225Z,100757.00
2018-06-12T10:11:31.890Z,100758.00
2018-06-12T10:14:42.263Z,100759.00
2018-06-12T10:17:52.609Z,100756.00
2018-06-12T10:21:03.679Z,100754.00
2018-06-12T10:24:14.589Z,100758.00
2018-06-12T10:27:25.158Z,100758.00
2018-06-12T10:30:35.820Z,100772.00
2018-06-12T10:33:47.788Z,100760.00
2018-06-12T10:36:58.287Z,100759.00
2018-06-12T10:40:09.117Z,100762.00
2018-06-12T10:43:19.601Z,100753.00
2018-06-12T10:46:30.503Z,100758.00
2018-06-12T10:49:41.128Z,100762.00
2018-06-12T10:52:52.029Z,100760.00
2018-06-12T10:56:03.196Z,100760.00
2018-06-12T10:59:13.769Z,100761.00
2018-06-12T11:02:24.316Z,100753.00
2018-06-12T11:05:35.211Z,100752.00
2018-06-12T11:08:45.616Z,100752.00
2018-06-12T11:11:56.318Z,100748.00
2018-06-12T11:15:07.800Z,100746.00
2018-06-12T11:18:18.252Z,100732.00
2018-06-12T11:21:28.563Z,100741.00
2018-06-12T11:24:40.133Z,100749.00
2018-06-12T11:27:51.309Z,100736.00
2018-06-12T11:31:02.913Z,100738.00
2018-06-12T11:34:13.645Z,100740.00
2018-06-12T11:37:24.412Z,100737.00
2018-06-12T11:40:35.046Z,100746.00
2018-06-12T11:43:45.995Z,100746.00
2018-06-12T11:46:57.091Z,100742.00
2018-06-12T11:50:07.527Z,100740.00
2018-06-12T11:53:18.048Z,100735.00
2018-06-12T11:56:28.868Z,100742.00
2018-06-12T11:59:39.599Z,100738.00
2018-06-12T12:02:50.060Z,100740.00
2018-06-12T12:06:01.764Z,100733.00
2018-06-12T12:09:12.643Z,100737.00
2018-06-12T12:12:23.671Z,100736.00
2018-06-12T12:15:34.653Z,100745.00
2018-06-12T12:18:45.636Z,100740.00
2018-06-12T12:21:56.298Z,100747.00
2018-06-12T12:25:07.163Z,100752.00
2018-06-12T12:28:17.999Z,100751.00
2018-06-12T12:31:28.721Z,100747.00
2018-06-12T12:34:39.354Z,100739.00
2018-06-12T12:37:54.476Z,100747.00
2018-06-12T12:41:06.571Z,100748.00
2018-06-12T12:44:17.212Z,100742.00
2018-06-12T12:47:30.442Z,100736.00
2018-06-12T12:50:43.020Z,100743.00
2018-06-12T12:53:53.901Z,100740.00
2018-06-12T12:57:04.489Z,100746.00
2018-06-12T13:00:16.016Z,100737.00
2018-06-12T13:03:27.572Z,100740.00
2018-06-12T13:06:39.660Z,100734.00
2018-06-12T13:09:50.964Z,100728.00
2018-06-12T13:13:02.082Z,100733.00
2018-06-12T13:16:12.871Z,100733.00
2018-06-12T13:19:25.230Z,100736.00
2018-06-12T13:22:36.407Z,100735.00
2018-06-12T13:25:48.196Z,100717.00
2018-06-12T13:28:59.094Z,100740.00
2018-06-12T13:32:11.024Z,100736.00
2018-06-12T13:35:21.830Z,100735.00
2018-06-12T13:38:32.721Z,100738.00
2018-06-12T13:41:44.396Z,100732.00
2018-06-12T13:44:56.314Z,100732.00
2018-06-12T13:48:08.009Z,100730.00
2018-06-12T13:51:18.660Z,100729.00
2018-06-12T13:54:29.668Z,100734.00
2018-06-12T13:57:40.857Z,100731.00
2018-06-12T14:00:51.233Z,100734.00
2018-06-12T14:04:02.847Z,100738.00
2018-06-12T14:07:14.365Z,100732.00
2018-06-12T14:10:25.892Z,100729.00
2018-06-12T14:13:37.051Z,100727.00
2018-06-12T14:16:51.954Z,100731.00
2018-06-12T14:20:04.090Z,100733.00
2018-06-12T14:23:14.849Z,100737.00
2018-06-12T14:26:25.808Z,100728.00
2018-06-12T14:29:36.859Z,100736.00
2018-06-12T14:32:47.791Z,100735.00
2018-06-12T14:35:59.345Z,100730.00
2018-06-12T14:39:10.745Z,100725.00
2018-06-12T14:42:21.506Z,100725.00
2018-06-12T14:45:32.459Z,100726.00
2018-06-12T14:48:44.298Z,100722.00
2018-06-12T14:51:57.808Z,100719.00
2018-06-12T14:55:08.616Z,100717.00
2018-06-12T14:58:20.221Z,100726.00
2018-06-12T15:01:30.847Z,100724.00
2018-06-12T15:04:42.588Z,100715.00
2018-06-12T15:07:53.475Z,100710.00
2018-06-12T15:11:05.959Z,100707.00
2018-06-12T15:14:16.564Z,100710.00
2018-06-12T15:17:30.692Z,100711.00
2018-06-12T15:20:41.458Z,100711.00
2018-06-12T15:23:53.565Z,100705.00
2018-06-12T15:27:04.374Z,100712.00
2018-06-12T15:30:15.056Z,100709.00
2018-06-12T15:33:25.882Z,100691.00
2018-06-12T15:36:36.882Z,100694.00
2018-06-12T15:39:48.140Z,100697.00
2018-06-12T15:42:59.101Z,100687.00
2018-06-12T15:46:10.107Z,100680.00
2018-06-12T15:49:20.665Z,100682.00
2018-06-12T15:52:31.368Z,100679.00
2018-06-12T15:55:45.492Z,100672.00
2018-06-12T15:58:56.565Z,100672.00
2018-06-12T16:02:07.883Z,100686.00
2018-06-12T16:05:18.552Z,100685.00
2018-06-12T16:08:29.496Z,100686.00
2018-06-12T16:11:40.632Z,100693.00
2018-06-12T16:14:55.266Z,100690.00
2018-06-12T16:18:06.801Z,100696.00
2018-06-12T16:21:17.714Z,100692.00
2018-06-12T16:24:28.820Z,100685.00
2018-06-12T16:27:40.452Z,100684.00
2018-06-12T16:30:51.656Z,100685.00
2018-06-12T16:34:02.376Z,100679.00
2018-06-12T16:37:12.863Z,100684.00
2018-06-12T16:40:23.483Z,100691.00
2018-06-12T16:43:34.250Z,100694.00
2018-06-12T16:46:45.629Z,100683.00
2018-06-12T16:49:57.183Z,100684.00
2018-06-12T16:53:07.980Z,100693.00
2018-06-12T16:56:18.841Z,100686.00
2018-06-12T16:59:29.645Z,100694.00
2018-06-12T17:02:41.012Z,100692.00
2018-06-12T17:05:53.217Z,100697.00
2018-06-12T17:09:04.409Z,100701.00
2018-06-12T17:12:16.653Z,100699.00
2018-06-12T17:15:27.960Z,100705.00
2018-06-12T17:18:40.936Z,100709.00
2018-06-12T17:21:52.452Z,100705.00
2018-06-12T17:25:03.400Z,100710.00
2018-06-12T17:28:14.078Z,100719.00
2018-06-12T17:31:25.888Z,100716.00
2018-06-12T17:34:41.329Z,100718.00
2018-06-12T17:37:54.104Z,100711.00
2018-06-12T17:41:05.880Z,100715.00
2018-06-12T17:44:17.156Z,100714.00
2018-06-12T17:47:28.391Z,100721.00
2018-06-12T17:50:40.611Z,100731.00
2018-06-12T17:53:51.616Z,100727.00
2018-06-12T17:57:02.982Z,100725.00
2018-06-12T18:00:15.359Z,100726.00
2018-06-12T18:03:26.712Z,100731.00
2018-06-12T18:06:37.319Z,100733.00
2018-06-12T18:09:49.185Z,100735.00
2018-06-12T18:13:02.301Z,100740.00
2018-06-12T18:16:13.074Z,100742.00
2018-06-12T18:19:27.062Z,100747.00
2018-06-12T18:22:38.240Z,100745.00
2018-06-12T18:25:49.316Z,100744.00
2018-06-12T18:29:03.028Z,100742.00
2018-06-12T18:32:14.727Z,100747.00
2018-06-12T18:35:25.988Z,100752.00
2018-06-12T18:38:37.721Z,100745.00
2018-06-12T18:41:49.270Z,100745.00
2018-06-12T18:45:10.034Z,100742.00
2018-06-12T18:48:27.131Z,100744.00
2018-06-12T18:51:38.002Z,100745.00
2018-06-12T18:54:54.663Z,100748.00
2018-06-12T18:58:05.037Z,100749.00
2018-06-12T19:01:15.511Z,100758.00
2018-06-12T19:04:34.552Z,100759.00
2018-06-12T19:07:46.500Z,100745.00
2018-06-12T19:10:57.671Z,100755.00
2018-06-12T19:14:10.088Z,100762.00
2018-06-12T19:17:21.457Z,100763.00
2018-06-12T19:20:32.281Z,100774.00
2018-06-12T19:23:45.727Z,100772.00
2018-06-12T19:26:57.333Z,100776.00
2018-06-12T19:30:08.312Z,100782.00
2018-06-12T19:33:19.342Z,100789.00
2018-06-12T19:36:31.219Z,100789.00
2018-06-12T19:39:43.323Z,100791.00
2018-06-12T19:42:53.969Z,100794.00
2018-06-12T19:46:07.795Z,100797.00
2018-06-12T19:49:18.351Z,100793.00
2018-06-12T19:52:29.241Z,100796.00
2018-06-12T19:55:40.766Z,100801.00
2018-06-12T19:58:59.096Z,100799.00
2018-06-12T20:02:10.492Z,100809.00
2018-06-12T20:05:21.103Z,100811.00
2018-06-12T20:08:32.206Z,100806.00
2018-06-12T20:11:43.469Z,100819.00
2018-06-12T20:14:54.928Z,100821.00
2018-06-12T20:18:08.520Z,100828.00
2018-06-12T20:21:19.216Z,100825.00
2018-06-12T20:24:30.208Z,100825.00
2018-06-12T20:27:40.843Z,100834.00
2018-06-12T20:30:52.743Z,100841.00
2018-06-12T20:34:03.661Z,100841.00
2018-06-12T20:37:14.760Z,100843.00
2018-06-12T20:40:30.303Z,100838.00
2018-06-12T20:43:41.304Z,100836.00
2018-06-12T20:46:51.886Z,100836.00
2018-06-12T20:50:02.886Z,100837.00
2018-06-12T20:53:13.360Z,100834.00
2018-06-12T20:56:24.347Z,100835.00
2018-06-12T20:59:35.275Z,100834.00
2018-06-12T21:02:45.971Z,100836.00
2018-06-12T21:05:56.766Z,100836.00
2018-06-12T21:09:08.814Z,100835.00
2018-06-12T21:12:19.760Z,100838.00
2018-06-12T21:15:30.220Z,100841.00
2018-06-12T21:18:41.287Z,100836.00
2018-06-12T21:21:52.188Z,100834.00
2018-06-12T21:25:02.884Z,100834.00
2018-06-12T21:28:13.815Z,100833.00
2018-06-12T21:31:24.351Z,100841.00
2018-06-12T21:34:34.940Z,100840.00
2018-06-12T21:37:45.671Z,100838.00
2018-06-12T21:40:56.696Z,100834.00
2018-06-12T21:44:11.829Z,100832.00
2018-06-12T21:47:22.811Z,100831.00
2018-06-12T21:50:33.152Z,100832.00
2018-06-12T21:53:43.598Z,100834.00
2018-06-12T21:56:54.534Z,100834.00
2018-06-12T22:00:07.333Z,100840.00
2018-06-12T22:03:17.736Z,100837.00
2018-06-12T22:06:30.481Z,100832.00
2018-06-12T22:09:41.351Z,100826.00
2018-06-12T22:12:52.074Z,100829.00
2018-06-12T22:16:04.149Z,100827.00
2018-06-12T22:19:14.837Z,100834.00
2018-06-12T22:22:25.477Z,100837.00
2018-06-12T22:25:36.892Z,100836.00
2018-06-12T22:28:47.720Z,100840.00
2018-06-12T22:31:58.810Z,100844.00
2018-06-12T22:35:09.722Z,100849.00
2018-06-12T22:38:20.392Z,100841.00
2018-06-12T22:41:31.029Z,100846.00
2018-06-12T22:44:41.655Z,100852.00
2018-06-12T22:47:53.712Z,100849.00
2018-06-12T22:51:04.589Z,100853.00
2018-06-12T22:54:15.004Z,100853.00
2018-06-12T22:57:25.935Z,100852.00
2018-06-12T23:00:36.352Z,100855.00
2018-06-12T23:03:47.377Z,100857.00
2018-06-12T23:06:58.272Z,100849.00
2018-06-12T23:10:10.444Z,100853.00
2018-06-12T23:13:21.710Z,100853.00
2018-06-12T23:16:32.408Z,100851.00
2018-06-12T23:20:00.086Z,100852.00
2018-06-12T23:23:10.972Z,100856.00
2018-06-12T23:26:21.529Z,100859.00
2018-06-12T23:29:37.996Z,100864.00
2018-06-12T23:32:48.419Z,100865.00
2018-06-12T23:35:59.100Z,100858.00
2018-06-12T23:39:09.643Z,100859.00
2018-06-12T23:42:20.318Z,100855.00
2018-06-12T23:45:31.228Z,100850.00
2018-06-12T23:48:42.016Z,100849.00
2018-06-12T23:51:52.689Z,100850.00
2018-06-12T23:55:03.242Z,100851.00
2018-06-12T23:58:13.939Z,100852.00
